IBE04ST LEMD-LEAS
Flight info
| Callsign | IBE04ST |
|---|---|
| Flight time | 0h 44m |
| Altitude | 30000 |
| Route | ZMR DCT VETAN DCT OMESI DCT ROVAK/N0417F240 M30 XONDA |
| Aircraft | A320/M-SDE3FGHIRWY/LB1 |
Departure
| Time | 2026-04-16 14:10 |
|---|---|
| Airport | Adolfo Suárez Madrid–Barajas Airport (LEMD) |
Arrival
| Time | 2026-04-16 14:54 |
|---|---|
| Airport | Asturias Airport (LEAS) |
| Time | Latitude | Longitude | Altitude | Speed | Heading |
|---|---|---|---|---|---|
| 2026-04-16 13:43 | 40.49399 | -3.58968 | 2022 ft | 0 kts | 271° |
| 2026-04-16 14:01 | 40.49399 | -3.58963 | 2022 ft | 3 kts | 270° |
| 2026-04-16 14:01 | 40.49401 | -3.58928 | 2029 ft | 4 kts | 259° |
| 2026-04-16 14:01 | 40.49409 | -3.58896 | 2034 ft | 4 kts | 229° |
| 2026-04-16 14:02 | 40.49425 | -3.58883 | 2030 ft | 1 kts | 180° |
| 2026-04-16 14:06 | 40.49424 | -3.58883 | 2022 ft | 2 kts | 180° |
| 2026-04-16 14:06 | 40.49357 | -3.58882 | 2025 ft | 14 kts | 180° |
| 2026-04-16 14:06 | 40.49260 | -3.58870 | 2028 ft | 13 kts | 147° |
| 2026-04-16 14:07 | 40.49240 | -3.58772 | 2026 ft | 10 kts | 91° |
| 2026-04-16 14:07 | 40.49240 | -3.58636 | 2027 ft | 18 kts | 90° |
| 2026-04-16 14:07 | 40.49242 | -3.58441 | 2014 ft | 26 kts | 89° |
| 2026-04-16 14:07 | 40.49242 | -3.58187 | 2006 ft | 30 kts | 90° |
| 2026-04-16 14:08 | 40.49243 | -3.57945 | 1999 ft | 27 kts | 89° |
| 2026-04-16 14:08 | 40.49243 | -3.57701 | 1990 ft | 21 kts | 90° |
| 2026-04-16 14:08 | 40.49274 | -3.57551 | 1987 ft | 17 kts | 53° |
| 2026-04-16 14:08 | 40.49360 | -3.57463 | 1984 ft | 16 kts | 20° |
| 2026-04-16 14:09 | 40.49486 | -3.57453 | 1986 ft | 33 kts | 359° |
| 2026-04-16 14:09 | 40.49964 | -3.57456 | 1987 ft | 101 kts | 359° |
| 2026-04-16 14:09 | 40.50858 | -3.57467 | 1996 ft | 154 kts | 359° |
| 2026-04-16 14:09 | 40.52056 | -3.57463 | 2178 ft | 180 kts | 358° |
| 2026-04-16 14:10 | 40.53314 | -3.57437 | 2795 ft | 183 kts | 358° |
| 2026-04-16 14:10 | 40.54609 | -3.57457 | 3481 ft | 188 kts | 357° |
| 2026-04-16 14:10 | 40.55946 | -3.57243 | 4001 ft | 201 kts | 12° |
| 2026-04-16 14:10 | 40.57356 | -3.56753 | 4470 ft | 217 kts | 14° |
| 2026-04-16 14:11 | 40.58860 | -3.56168 | 4919 ft | 235 kts | 15° |
| 2026-04-16 14:11 | 40.60484 | -3.55525 | 5427 ft | 251 kts | 15° |
| 2026-04-16 14:11 | 40.62174 | -3.54864 | 6209 ft | 254 kts | 15° |
| 2026-04-16 14:11 | 40.63891 | -3.54280 | 6986 ft | 254 kts | 5° |
| 2026-04-16 14:12 | 40.65654 | -3.54085 | 7760 ft | 255 kts | 1° |
| 2026-04-16 14:12 | 40.67428 | -3.53924 | 8587 ft | 256 kts | 1° |
| 2026-04-16 14:12 | 40.69200 | -3.53767 | 9445 ft | 255 kts | 1° |
| 2026-04-16 14:12 | 40.70978 | -3.53610 | 10273 ft | 256 kts | 0° |
| 2026-04-16 14:13 | 40.72755 | -3.53465 | 10998 ft | 258 kts | 357° |
| 2026-04-16 14:13 | 40.74506 | -3.53852 | 11695 ft | 254 kts | 335° |
| 2026-04-16 14:13 | 40.75998 | -3.55017 | 12298 ft | 258 kts | 316° |
| 2026-04-16 14:13 | 40.77121 | -3.56913 | 12735 ft | 270 kts | 295° |
| 2026-04-16 14:14 | 40.77964 | -3.59202 | 13123 ft | 286 kts | 295° |
| 2026-04-16 14:14 | 40.78864 | -3.61629 | 13478 ft | 303 kts | 295° |
| 2026-04-16 14:14 | 40.79822 | -3.64190 | 13820 ft | 320 kts | 295° |
| 2026-04-16 14:14 | 40.80838 | -3.66887 | 14117 ft | 336 kts | 296° |
| 2026-04-16 14:15 | 40.81906 | -3.69712 | 14362 ft | 353 kts | 296° |
| 2026-04-16 14:15 | 40.83018 | -3.72659 | 14759 ft | 361 kts | 295° |
| 2026-04-16 14:15 | 40.84145 | -3.75651 | 15352 ft | 365 kts | 295° |
| 2026-04-16 14:15 | 40.85278 | -3.78660 | 15949 ft | 367 kts | 295° |
| 2026-04-16 14:16 | 40.86414 | -3.81688 | 16532 ft | 370 kts | 295° |
| 2026-04-16 14:16 | 40.87559 | -3.84748 | 17107 ft | 374 kts | 295° |
| 2026-04-16 14:16 | 40.88714 | -3.87846 | 17683 ft | 377 kts | 295° |
| 2026-04-16 14:16 | 40.89863 | -3.90932 | 18275 ft | 381 kts | 295° |
| 2026-04-16 14:17 | 40.91042 | -3.94091 | 18794 ft | 384 kts | 295° |
| 2026-04-16 14:17 | 40.92227 | -3.97264 | 19319 ft | 387 kts | 295° |
| 2026-04-16 14:17 | 40.93424 | -4.00469 | 19858 ft | 390 kts | 295° |
| 2026-04-16 14:17 | 40.94628 | -4.03702 | 20380 ft | 393 kts | 295° |
| 2026-04-16 14:18 | 40.95843 | -4.06964 | 20872 ft | 396 kts | 295° |
| 2026-04-16 14:18 | 40.97063 | -4.10248 | 21338 ft | 399 kts | 295° |
| 2026-04-16 14:18 | 40.98293 | -4.13563 | 21807 ft | 402 kts | 295° |
| 2026-04-16 14:18 | 40.99529 | -4.16898 | 22260 ft | 405 kts | 295° |
| 2026-04-16 14:19 | 41.00770 | -4.20257 | 22699 ft | 408 kts | 294° |
| 2026-04-16 14:19 | 41.02020 | -4.23649 | 23131 ft | 411 kts | 294° |
| 2026-04-16 14:19 | 41.03280 | -4.27052 | 23563 ft | 414 kts | 295° |
| 2026-04-16 14:19 | 41.04559 | -4.30493 | 23937 ft | 416 kts | 295° |
| 2026-04-16 14:20 | 41.05844 | -4.33943 | 24293 ft | 418 kts | 295° |
| 2026-04-16 14:20 | 41.06697 | -4.36234 | 24518 ft | 420 kts | 295° |
| 2026-04-16 14:20 | 41.07986 | -4.39705 | 24871 ft | 421 kts | 295° |
| 2026-04-16 14:20 | 41.09281 | -4.43195 | 25212 ft | 423 kts | 295° |
| 2026-04-16 14:21 | 41.10579 | -4.46701 | 25553 ft | 424 kts | 295° |
| 2026-04-16 14:21 | 41.11879 | -4.50217 | 25892 ft | 426 kts | 295° |
| 2026-04-16 14:21 | 41.13183 | -4.53750 | 26228 ft | 427 kts | 295° |
| 2026-04-16 14:21 | 41.14915 | -4.58457 | 26653 ft | 429 kts | 295° |
| 2026-04-16 14:22 | 41.15798 | -4.60862 | 26860 ft | 430 kts | 295° |
| 2026-04-16 14:22 | 41.17107 | -4.64431 | 27163 ft | 432 kts | 295° |
| 2026-04-16 14:22 | 41.18426 | -4.68033 | 27454 ft | 433 kts | 295° |
| 2026-04-16 14:22 | 41.19728 | -4.71593 | 27749 ft | 435 kts | 295° |
| 2026-04-16 14:23 | 41.21071 | -4.75253 | 28030 ft | 436 kts | 295° |
| 2026-04-16 14:23 | 41.22385 | -4.78836 | 28296 ft | 438 kts | 295° |
| 2026-04-16 14:23 | 41.23715 | -4.82474 | 28551 ft | 439 kts | 295° |
| 2026-04-16 14:23 | 41.25052 | -4.86139 | 28809 ft | 440 kts | 295° |
| 2026-04-16 14:24 | 41.26385 | -4.89803 | 29054 ft | 442 kts | 295° |
| 2026-04-16 14:24 | 41.27724 | -4.93493 | 29289 ft | 443 kts | 295° |
| 2026-04-16 14:24 | 41.29058 | -4.97170 | 29529 ft | 443 kts | 295° |
| 2026-04-16 14:24 | 41.30400 | -5.00872 | 29845 ft | 442 kts | 295° |
| 2026-04-16 14:25 | 41.31733 | -5.04550 | 30135 ft | 442 kts | 295° |
| 2026-04-16 14:25 | 41.33060 | -5.08203 | 30196 ft | 435 kts | 295° |
| 2026-04-16 14:25 | 41.35678 | -5.15448 | 30201 ft | 434 kts | 295° |
| 2026-04-16 14:26 | 41.38286 | -5.22707 | 30200 ft | 434 kts | 295° |
| 2026-04-16 14:26 | 41.40892 | -5.29964 | 30195 ft | 434 kts | 295° |
| 2026-04-16 14:27 | 41.43494 | -5.37224 | 30191 ft | 434 kts | 295° |
| 2026-04-16 14:27 | 41.46071 | -5.44432 | 30184 ft | 434 kts | 294° |
| 2026-04-16 14:28 | 41.48663 | -5.51694 | 30189 ft | 433 kts | 294° |
| 2026-04-16 14:28 | 41.51253 | -5.58959 | 30194 ft | 433 kts | 294° |
| 2026-04-16 14:29 | 41.53994 | -5.66107 | 30190 ft | 434 kts | 305° |
| 2026-04-16 14:29 | 41.56119 | -5.68971 | 30178 ft | 439 kts | 322° |
| 2026-04-16 14:29 | 41.58851 | -5.70828 | 30166 ft | 445 kts | 340° |
| 2026-04-16 14:30 | 41.61933 | -5.71426 | 30158 ft | 453 kts | 359° |
| 2026-04-16 14:30 | 41.65049 | -5.70664 | 30152 ft | 461 kts | 17° |
| 2026-04-16 14:30 | 41.71138 | -5.68013 | 30162 ft | 458 kts | 6° |
| 2026-04-16 14:31 | 41.74296 | -5.67740 | 30161 ft | 452 kts | 353° |
| 2026-04-16 14:31 | 41.77409 | -5.68175 | 30161 ft | 451 kts | 349° |
| 2026-04-16 14:31 | 41.83622 | -5.69278 | 30166 ft | 450 kts | 349° |
| 2026-04-16 14:32 | 41.89841 | -5.70442 | 30170 ft | 451 kts | 349° |
| 2026-04-16 14:32 | 41.96054 | -5.71581 | 30165 ft | 451 kts | 349° |
| 2026-04-16 14:33 | 42.02276 | -5.72677 | 30169 ft | 451 kts | 349° |
| 2026-04-16 14:33 | 42.08450 | -5.73767 | 30174 ft | 451 kts | 349° |
| 2026-04-16 14:34 | 42.14676 | -5.74881 | 30171 ft | 451 kts | 349° |
| 2026-04-16 14:34 | 42.20897 | -5.76009 | 30172 ft | 451 kts | 349° |
| 2026-04-16 14:35 | 42.27123 | -5.77134 | 30178 ft | 451 kts | 349° |
| 2026-04-16 14:35 | 42.33350 | -5.78252 | 30180 ft | 451 kts | 349° |
| 2026-04-16 14:36 | 42.39574 | -5.79366 | 30186 ft | 452 kts | 349° |
| 2026-04-16 14:36 | 42.45799 | -5.80492 | 30187 ft | 452 kts | 348° |
| 2026-04-16 14:37 | 42.48934 | -5.81059 | 29987 ft | 458 kts | 348° |
| 2026-04-16 14:37 | 42.52104 | -5.81630 | 29301 ft | 459 kts | 349° |
| 2026-04-16 14:37 | 42.55284 | -5.82204 | 28148 ft | 462 kts | 349° |
| 2026-04-16 14:37 | 42.58447 | -5.82774 | 27516 ft | 454 kts | 349° |
| 2026-04-16 14:38 | 42.61563 | -5.83337 | 26797 ft | 450 kts | 349° |
| 2026-04-16 14:38 | 42.64653 | -5.83895 | 26088 ft | 446 kts | 349° |
| 2026-04-16 14:38 | 42.67719 | -5.84454 | 25395 ft | 443 kts | 348° |
| 2026-04-16 14:38 | 42.70764 | -5.85015 | 24709 ft | 440 kts | 349° |
| 2026-04-16 14:39 | 42.73791 | -5.85572 | 24033 ft | 438 kts | 349° |
| 2026-04-16 14:39 | 42.76805 | -5.86125 | 23313 ft | 436 kts | 349° |
| 2026-04-16 14:39 | 42.79792 | -5.86670 | 22661 ft | 432 kts | 349° |
| 2026-04-16 14:39 | 42.82754 | -5.87208 | 22052 ft | 427 kts | 349° |
| 2026-04-16 14:40 | 42.85643 | -5.87736 | 21469 ft | 423 kts | 349° |
| 2026-04-16 14:40 | 42.88585 | -5.88267 | 20884 ft | 419 kts | 349° |
| 2026-04-16 14:40 | 42.91429 | -5.88757 | 20348 ft | 416 kts | 349° |
| 2026-04-16 14:40 | 42.94288 | -5.89234 | 19806 ft | 413 kts | 350° |
| 2026-04-16 14:41 | 42.97131 | -5.89702 | 19299 ft | 410 kts | 350° |
| 2026-04-16 14:41 | 42.99952 | -5.90168 | 18794 ft | 407 kts | 350° |
| 2026-04-16 14:41 | 43.02746 | -5.90666 | 18284 ft | 401 kts | 346° |
| 2026-04-16 14:41 | 43.05402 | -5.91667 | 17783 ft | 392 kts | 335° |
| 2026-04-16 14:42 | 43.07831 | -5.93265 | 17303 ft | 383 kts | 325° |
| 2026-04-16 14:42 | 43.09976 | -5.95343 | 16834 ft | 374 kts | 317° |
| 2026-04-16 14:42 | 43.12002 | -5.97562 | 16348 ft | 371 kts | 317° |
| 2026-04-16 14:42 | 43.14011 | -5.99750 | 15871 ft | 367 kts | 317° |
| 2026-04-16 14:43 | 43.15999 | -6.01921 | 15379 ft | 364 kts | 317° |
| 2026-04-16 14:43 | 43.17965 | -6.04070 | 14889 ft | 361 kts | 317° |
| 2026-04-16 14:43 | 43.19923 | -6.06211 | 14360 ft | 357 kts | 317° |
| 2026-04-16 14:43 | 43.21833 | -6.08299 | 13815 ft | 354 kts | 317° |
| 2026-04-16 14:44 | 43.23752 | -6.10397 | 13271 ft | 351 kts | 317° |
| 2026-04-16 14:44 | 43.25648 | -6.12480 | 12739 ft | 349 kts | 317° |
| 2026-04-16 14:44 | 43.27534 | -6.14556 | 12199 ft | 346 kts | 317° |
| 2026-04-16 14:44 | 43.29402 | -6.16609 | 11664 ft | 342 kts | 317° |
| 2026-04-16 14:45 | 43.31252 | -6.18648 | 11115 ft | 340 kts | 317° |
| 2026-04-16 14:45 | 43.33076 | -6.20661 | 10801 ft | 331 kts | 317° |
| 2026-04-16 14:45 | 43.34835 | -6.22599 | 10678 ft | 315 kts | 316° |
| 2026-04-16 14:45 | 43.36506 | -6.24439 | 10561 ft | 301 kts | 316° |
| 2026-04-16 14:46 | 43.38108 | -6.26205 | 10445 ft | 289 kts | 316° |
| 2026-04-16 14:46 | 43.39656 | -6.27914 | 10263 ft | 280 kts | 316° |
| 2026-04-16 14:46 | 43.41173 | -6.29593 | 10207 ft | 281 kts | 316° |
| 2026-04-16 14:46 | 43.42699 | -6.31287 | 9900 ft | 281 kts | 316° |
| 2026-04-16 14:47 | 43.44197 | -6.32953 | 9506 ft | 279 kts | 316° |
| 2026-04-16 14:47 | 43.45705 | -6.34627 | 9128 ft | 278 kts | 316° |
| 2026-04-16 14:47 | 43.47210 | -6.36299 | 8753 ft | 278 kts | 316° |
| 2026-04-16 14:47 | 43.48716 | -6.37971 | 8378 ft | 278 kts | 317° |
| 2026-04-16 14:48 | 43.50319 | -6.39482 | 8008 ft | 282 kts | 331° |
| 2026-04-16 14:48 | 43.52233 | -6.40210 | 7615 ft | 290 kts | 353° |
| 2026-04-16 14:48 | 43.54247 | -6.39946 | 7195 ft | 295 kts | 14° |
| 2026-04-16 14:48 | 43.56192 | -6.39074 | 6778 ft | 295 kts | 17° |
| 2026-04-16 14:49 | 43.58142 | -6.38198 | 6341 ft | 294 kts | 17° |
| 2026-04-16 14:49 | 43.60079 | -6.37336 | 5842 ft | 294 kts | 17° |
| 2026-04-16 14:49 | 43.61937 | -6.36212 | 5295 ft | 287 kts | 39° |
| 2026-04-16 14:49 | 43.63074 | -6.34103 | 4878 ft | 269 kts | 74° |
| 2026-04-16 14:50 | 43.63131 | -6.31648 | 4505 ft | 250 kts | 107° |
| 2026-04-16 14:50 | 43.62623 | -6.29426 | 4168 ft | 237 kts | 111° |
| 2026-04-16 14:50 | 43.62090 | -6.27322 | 3838 ft | 227 kts | 110° |
| 2026-04-16 14:50 | 43.61577 | -6.25304 | 3517 ft | 218 kts | 109° |
| 2026-04-16 14:51 | 43.61100 | -6.23392 | 3209 ft | 209 kts | 108° |
| 2026-04-16 14:51 | 43.60646 | -6.21525 | 2920 ft | 201 kts | 107° |
| 2026-04-16 14:51 | 43.60205 | -6.19700 | 2656 ft | 200 kts | 107° |
| 2026-04-16 14:51 | 43.59777 | -6.17915 | 2435 ft | 192 kts | 106° |
| 2026-04-16 14:53 | 43.57416 | -6.07982 | 921 ft | 143 kts | 104° |
| 2026-04-16 14:53 | 43.57132 | -6.06681 | 739 ft | 143 kts | 102° |
| 2026-04-16 14:54 | 43.56817 | -6.05381 | 563 ft | 143 kts | 105° |
| 2026-04-16 14:54 | 43.56501 | -6.04087 | 425 ft | 139 kts | 103° |
| 2026-04-16 14:54 | 43.56260 | -6.03054 | 421 ft | 73 kts | 108° |
| 2026-04-16 14:54 | 43.56157 | -6.02614 | 427 ft | 44 kts | 109° |
| 2026-04-16 14:55 | 43.56068 | -6.02245 | 424 ft | 29 kts | 123° |
| 2026-04-16 14:55 | 43.56003 | -6.02226 | 421 ft | 8 kts | 219° |
| 2026-04-16 14:55 | 43.55964 | -6.02323 | 417 ft | 12 kts | 248° |
| 2026-04-16 14:55 | 43.55948 | -6.02427 | 416 ft | 11 kts | 278° |
| 2026-04-16 14:56 | 43.55979 | -6.02563 | 418 ft | 22 kts | 288° |
| 2026-04-16 14:56 | 43.56031 | -6.02778 | 420 ft | 24 kts | 289° |
| 2026-04-16 14:56 | 43.56031 | -6.02898 | 418 ft | 3 kts | 201° |
| 2026-04-16 14:56 | 43.55999 | -6.02925 | 420 ft | 6 kts | 233° |
| 2026-04-16 14:57 | 43.55995 | -6.02967 | 416 ft | 4 kts | 283° |
| 2026-04-16 14:57 | 43.56002 | -6.02998 | 422 ft | 4 kts | 289° |
| 2026-04-16 14:57 | 43.56027 | -6.03101 | 418 ft | 14 kts | 287° |
| 2026-04-16 14:57 | 43.56002 | -6.03161 | 423 ft | 3 kts | 206° |
| 2026-04-16 14:58 | 43.55997 | -6.03179 | 421 ft | 1 kts | 261° |
| 2026-04-16 14:58 | 43.55997 | -6.03180 | 422 ft | 0 kts | 262° |